Elkins, WV

11:48 AM EST on March 01, 2015 (GMT -0500)
KWVELKIN3 | Change Station
CLOSE
Current Station
Personal Weather Station
Location: Elkins, WV
Elevation: 1972 ft
Nearby Weather Stations

Elev 1972 ft 38.89 °N, 79.85 °W | Updated 3 seconds ago

Light Rain
Light Rain
36.7 °F
Feels Like 37 °F
N
0.0
Wind Variable Wind from SE
Gusts 0.0 mph

Today
High -- | Low -- °F
--% Chance of Precip.
Yesterday
High -- | Low -- °F
Precip. -- in
6:52 AM 6:11 PM
Waxing Gibbous, 86% visible
Pressure 30.50 in
Visibility 5.0 miles
Clouds Overcast 2400 ft
Windchill 37 °F
Dew Point 32 °F
Humidity 83%
Rainfall 0.05 in
Snow Depth Not available.
UV 2 out of 12
Pollen .80 out of 12
Air Quality Not available.
Flu Activity Not available.
METAR KEKN 011551Z AUTO 00000KT 5SM -RA OVC024 02/M02 A3041 RMK AO2 RAB00 SLP328 P0002 T00171017 TSNO

More Conditions Fewer Conditions

Pressure 30.50 in
Visibility 5.0 miles
Clouds Overcast 2400 ft
Windchill 37 °F
Dew Point 32 °F
Humidity 83%
Rainfall 0.05 in
Snow Depth Not available.
UV 2 out of 12
Pollen .80 out of 12
Air Quality Not available.
Flu Activity Not available.
METAR KEKN 011551Z AUTO 00000KT 5SM -RA OVC024 02/M02 A3041 RMK AO2 RAB00 SLP328 P0002 T00171017 TSNO

More Conditions Fewer Conditions

10-Day Weather Forecast

Almanac

Astronomy

Mar. 01, 2015 Rise Set
Actual Time
Civil Twilight
Nautical Twilight
Astronomical Twilight
Moon
Length of Visible Light
Length of Day
Tomorrow will be .
, % of the Moon is Illuminated

Today's Extremes

State Highs State Lows

Community

WunderPhotos

Upload Photos

1,801,451 photos uploaded!

WunderBlogs® & News

Nearby

Air Quality

  Air Quality AQ Index Pollutant
Not available.

Snow Depth

Station Depth Elevation

Earthquake Activity

City Distance Mag. Time & Date
Minimum magnitude displayed is 2.5.

Coastal Water Temperatures

Place Temperature

Nearby Weather Stations